createdAt,value
2023-04-15T00:00:16.362Z,1697.00
2023-04-15T00:01:16.370Z,1699.00
2023-04-15T00:02:16.540Z,1691.00
2023-04-15T00:03:16.500Z,1669.00
2023-04-15T00:04:16.583Z,1693.00
2023-04-15T00:05:16.383Z,1701.00
2023-04-15T00:06:16.338Z,1666.00
2023-04-15T00:07:16.363Z,1674.00
2023-04-15T00:08:16.359Z,1685.00
2023-04-15T00:09:16.415Z,1667.00
2023-04-15T00:10:16.470Z,1682.00
2023-04-15T00:11:16.525Z,1681.00
2023-04-15T00:12:16.583Z,1681.00
2023-04-15T00:13:16.666Z,1651.00
2023-04-15T00:14:16.705Z,1658.00
2023-04-15T00:15:16.774Z,1670.00
2023-04-15T00:16:16.840Z,1668.00
2023-04-15T00:17:16.868Z,1660.00
2023-04-15T00:18:16.959Z,1659.00
2023-04-15T00:19:17.020Z,1660.00
2023-04-15T00:20:17.062Z,1656.00
2023-04-15T00:21:17.153Z,1659.00
2023-04-15T00:22:17.174Z,1669.00
2023-04-15T00:23:17.323Z,1661.00
2023-04-15T00:24:17.272Z,1647.00
2023-04-15T00:25:17.417Z,1660.00
2023-04-15T00:26:17.523Z,1666.00
2023-04-15T00:27:17.462Z,1652.00
2023-04-15T00:28:17.516Z,1667.00
2023-04-15T00:29:17.573Z,1663.00
2023-04-15T00:30:17.626Z,1642.00
2023-04-15T00:31:17.719Z,1653.00
2023-04-15T00:32:17.695Z,1655.00
2023-04-15T00:33:17.763Z,1680.00
2023-04-15T00:34:17.757Z,1640.00
2023-04-15T00:35:17.803Z,1636.00
2023-04-15T00:36:17.900Z,1677.00
2023-04-15T00:37:17.896Z,1677.00
2023-04-15T00:38:17.934Z,1682.00
2023-04-15T00:39:17.941Z,1639.00
2023-04-15T00:40:18.008Z,1650.00
2023-04-15T00:41:18.022Z,1638.00
2023-04-15T00:42:18.007Z,1638.00
2023-04-15T00:43:18.067Z,1633.00
2023-04-15T00:44:18.136Z,1675.00
2023-04-15T00:45:18.197Z,1633.00
2023-04-15T00:46:18.346Z,1649.00
2023-04-15T00:47:18.258Z,1637.00
2023-04-15T00:48:18.309Z,1659.00
2023-04-15T00:49:18.348Z,1629.00
2023-04-15T00:50:18.404Z,1639.00
2023-04-15T00:51:18.399Z,1631.00
2023-04-15T00:52:18.417Z,1640.00
2023-04-15T00:53:18.449Z,1637.00
2023-04-15T00:54:18.515Z,1646.00
2023-04-15T00:55:18.514Z,1647.00
2023-04-15T00:56:18.536Z,1626.00
2023-04-15T00:57:18.565Z,1636.00
2023-04-15T00:58:18.608Z,1631.00
2023-04-15T00:59:18.663Z,1647.00
2023-04-15T01:00:18.696Z,1645.00
2023-04-15T01:01:18.725Z,1639.00
2023-04-15T01:02:18.859Z,1656.00
2023-04-15T01:03:18.848Z,1650.00
2023-04-15T01:04:19.055Z,1656.00
2023-04-15T01:05:18.904Z,1636.00
2023-04-15T01:06:18.951Z,1625.00
2023-04-15T01:07:18.964Z,1630.00
2023-04-15T01:08:19.007Z,1626.00
2023-04-15T01:09:19.179Z,1634.00
2023-04-15T01:10:19.157Z,1607.00
2023-04-15T01:11:19.239Z,1639.00
2023-04-15T01:12:19.298Z,1619.00
2023-04-15T01:13:19.306Z,1602.00
2023-04-15T01:14:19.424Z,1615.00
2023-04-15T01:15:19.366Z,1615.00
2023-04-15T01:16:19.460Z,1615.00
2023-04-15T01:17:19.507Z,1613.00
2023-04-15T01:18:19.544Z,1619.00
2023-04-15T01:19:19.553Z,1615.00
2023-04-15T01:20:19.569Z,1625.00
2023-04-15T01:21:19.609Z,1621.00
2023-04-15T01:22:19.725Z,1642.00
2023-04-15T01:23:19.736Z,1604.00
2023-04-15T01:24:19.802Z,1621.00
2023-04-15T01:25:19.765Z,1598.00
2023-04-15T01:26:19.843Z,1616.00
2023-04-15T01:27:19.906Z,1629.00
2023-04-15T01:28:19.974Z,1595.00
2023-04-15T01:29:20.027Z,1604.00
2023-04-15T01:30:20.088Z,1609.00
2023-04-15T01:31:20.057Z,1608.00
2023-04-15T01:32:20.122Z,1608.00
2023-04-15T01:33:20.122Z,1600.00
2023-04-15T01:34:20.217Z,1597.00
2023-04-15T01:35:20.221Z,1590.00
2023-04-15T01:36:20.262Z,1589.00
2023-04-15T01:37:20.286Z,1590.00
2023-04-15T01:38:20.402Z,1627.00
2023-04-15T01:39:20.405Z,1597.00
2023-04-15T01:40:20.466Z,1595.00
2023-04-15T01:41:20.468Z,1614.00
2023-04-15T01:42:20.505Z,1594.00
2023-04-15T01:43:20.513Z,1594.00
2023-04-15T01:44:20.592Z,1593.00
2023-04-15T01:45:20.599Z,1586.00
2023-04-15T01:46:20.627Z,1598.00
2023-04-15T01:47:20.671Z,1593.00
2023-04-15T01:48:20.725Z,1594.00
2023-04-15T01:49:20.798Z,1603.00
2023-04-15T01:50:20.798Z,1607.00
2023-04-15T01:51:20.839Z,1609.00
2023-04-15T01:52:20.901Z,1580.00
2023-04-15T01:53:20.912Z,1581.00
2023-04-15T01:54:20.976Z,1585.00
2023-04-15T01:55:20.970Z,1592.00
2023-04-15T01:56:21.013Z,1572.00
2023-04-15T01:57:21.084Z,1578.00
2023-04-15T01:58:21.134Z,1585.00
2023-04-15T01:59:21.163Z,1570.00
2023-04-15T02:00:21.210Z,1596.00
2023-04-15T02:01:21.242Z,1570.00
2023-04-15T02:02:21.344Z,1594.00
2023-04-15T02:03:21.372Z,1572.00
2023-04-15T02:04:21.311Z,1573.00
2023-04-15T02:05:21.350Z,1590.00
2023-04-15T02:06:21.437Z,1574.00
2023-04-15T02:07:21.398Z,1567.00
2023-04-15T02:08:21.474Z,1570.00
2023-04-15T02:09:21.529Z,1562.00
2023-04-15T02:10:21.524Z,1572.00
2023-04-15T02:11:21.593Z,1572.00
2023-04-15T02:12:21.613Z,1585.00
2023-04-15T02:13:21.667Z,1555.00
2023-04-15T02:14:21.685Z,1555.00
2023-04-15T02:15:21.746Z,1561.00
2023-04-15T02:16:21.773Z,1561.00
2023-04-15T02:17:21.886Z,1562.00
2023-04-15T02:18:21.922Z,1566.00
2023-04-15T02:19:21.950Z,1583.00
2023-04-15T02:20:22.097Z,1565.00
2023-04-15T02:21:22.073Z,1567.00
2023-04-15T02:22:22.193Z,1569.00
2023-04-15T02:23:22.156Z,1569.00
2023-04-15T02:24:22.189Z,1558.00
2023-04-15T02:25:22.223Z,1552.00
2023-04-15T02:26:22.266Z,1589.00
2023-04-15T02:27:22.282Z,1577.00
2023-04-15T02:28:22.325Z,1559.00
2023-04-15T02:29:22.357Z,1565.00
2023-04-15T02:30:22.394Z,1548.00
2023-04-15T02:31:22.456Z,1550.00
2023-04-15T02:32:22.441Z,1554.00
2023-04-15T02:33:22.500Z,1557.00
2023-04-15T02:34:22.498Z,1557.00
2023-04-15T02:35:22.532Z,1542.00
2023-04-15T02:36:22.578Z,1547.00
2023-04-15T02:37:22.628Z,1551.00
2023-04-15T02:38:22.644Z,1550.00
2023-04-15T02:39:22.701Z,1542.00
2023-04-15T02:40:22.774Z,1549.00
2023-04-15T02:41:22.780Z,1550.00
2023-04-15T02:42:22.837Z,1558.00
2023-04-15T02:43:22.844Z,1562.00
2023-04-15T02:44:22.883Z,1572.00
2023-04-15T02:45:22.910Z,1546.00
2023-04-15T02:46:23.113Z,1551.00
2023-04-15T02:47:23.014Z,1536.00
2023-04-15T02:48:23.040Z,1543.00
2023-04-15T02:49:23.078Z,1540.00
2023-04-15T02:50:23.118Z,1554.00
2023-04-15T02:51:23.230Z,1538.00
2023-04-15T02:52:23.205Z,1542.00
2023-04-15T02:53:23.256Z,1568.00
2023-04-15T02:54:23.322Z,1537.00
2023-04-15T02:55:23.353Z,1542.00
2023-04-15T02:56:23.396Z,1549.00
2023-04-15T02:57:23.449Z,1558.00
2023-04-15T02:58:23.483Z,1553.00
2023-04-15T02:59:23.514Z,1519.00
2023-04-15T03:00:23.567Z,1525.00
2023-04-15T03:01:23.699Z,1534.00
2023-04-15T03:02:23.862Z,1535.00
2023-04-15T03:03:23.752Z,1532.00
2023-04-15T03:04:23.803Z,1539.00
2023-04-15T03:05:23.798Z,1527.00
2023-04-15T03:06:23.895Z,1537.00
2023-04-15T03:07:23.919Z,1523.00
2023-04-15T03:08:23.944Z,1528.00
2023-04-15T03:09:24.030Z,1522.00
2023-04-15T03:10:24.081Z,1521.00
2023-04-15T03:11:24.107Z,1521.00
2023-04-15T03:12:24.209Z,1507.00
2023-04-15T03:13:24.266Z,1518.00
2023-04-15T03:14:24.229Z,1515.00
2023-04-15T03:15:24.309Z,1543.00
2023-04-15T03:16:24.312Z,1520.00
2023-04-15T03:17:24.346Z,1525.00
2023-04-15T03:18:24.414Z,1525.00
2023-04-15T03:19:24.458Z,1514.00
2023-04-15T03:20:24.512Z,1523.00
2023-04-15T03:21:24.532Z,1504.00
2023-04-15T03:22:24.563Z,1527.00
2023-04-15T03:23:24.599Z,1503.00
2023-04-15T03:24:24.650Z,1548.00
2023-04-15T03:25:24.716Z,1521.00
2023-04-15T03:26:24.801Z,1518.00
2023-04-15T03:27:24.813Z,1528.00
2023-04-15T03:28:24.798Z,1515.00
2023-04-15T03:29:24.879Z,1495.00
2023-04-15T03:30:24.913Z,1507.00
2023-04-15T03:31:25.059Z,1506.00
2023-04-15T03:32:25.081Z,1487.00
2023-04-15T03:33:25.113Z,1509.00
2023-04-15T03:34:25.150Z,1509.00
2023-04-15T03:35:25.188Z,1507.00
2023-04-15T03:36:25.243Z,1507.00
2023-04-15T03:37:25.298Z,1504.00
2023-04-15T03:38:25.306Z,1514.00
2023-04-15T03:39:25.466Z,1491.00
2023-04-15T03:40:25.405Z,1502.00
2023-04-15T03:41:25.478Z,1505.00
2023-04-15T03:42:25.511Z,1507.00
2023-04-15T03:43:25.555Z,1503.00
2023-04-15T03:44:25.603Z,1490.00
2023-04-15T03:45:25.712Z,1495.00
2023-04-15T03:46:25.770Z,1490.00
2023-04-15T03:47:25.789Z,1503.00
2023-04-15T03:48:25.765Z,1480.00
2023-04-15T03:49:25.837Z,1493.00
2023-04-15T03:50:25.879Z,1476.00
2023-04-15T03:51:25.961Z,1497.00
2023-04-15T03:52:25.953Z,1495.00
2023-04-15T03:53:26.018Z,1486.00
2023-04-15T03:54:26.064Z,1484.00
2023-04-15T03:55:26.115Z,1484.00
2023-04-15T03:56:26.140Z,1471.00
2023-04-15T03:57:26.203Z,1480.00
2023-04-15T03:58:26.246Z,1491.00
2023-04-15T03:59:26.285Z,1474.00
2023-04-15T04:00:26.367Z,1485.00
2023-04-15T04:01:26.370Z,1475.00
2023-04-15T04:02:26.748Z,1471.00
2023-04-15T04:03:26.701Z,1459.00
2023-04-15T04:04:26.568Z,1460.00
2023-04-15T04:05:26.595Z,1474.00
2023-04-15T04:06:26.609Z,1450.00
2023-04-15T04:07:26.643Z,1455.00
2023-04-15T04:08:26.689Z,1447.00
2023-04-15T04:09:26.702Z,1450.00
2023-04-15T04:10:26.801Z,1448.00
2023-04-15T04:11:26.779Z,1440.00
2023-04-15T04:12:26.860Z,1442.00
2023-04-15T04:13:26.852Z,1447.00
2023-04-15T04:14:26.923Z,1440.00
2023-04-15T04:15:26.986Z,1443.00
2023-04-15T04:16:27.164Z,1438.00
2023-04-15T04:17:27.065Z,1444.00
2023-04-15T04:18:27.113Z,1441.00
2023-04-15T04:19:27.095Z,1425.00
2023-04-15T04:20:27.120Z,1433.00
2023-04-15T04:21:27.192Z,1422.00
2023-04-15T04:22:27.209Z,1419.00
2023-04-15T04:23:27.197Z,1435.00
2023-04-15T04:24:27.235Z,1417.00
2023-04-15T04:25:27.258Z,1415.00
2023-04-15T04:26:27.289Z,1405.00
2023-04-15T04:27:27.369Z,1419.00
2023-04-15T04:28:27.334Z,1411.00
2023-04-15T04:29:27.396Z,1419.00
2023-04-15T04:30:27.347Z,1399.00
2023-04-15T04:31:27.506Z,1413.00
2023-04-15T04:32:27.472Z,1389.00
2023-04-15T04:33:27.459Z,1398.00
2023-04-15T04:34:27.482Z,1399.00
2023-04-15T04:35:27.524Z,1406.00
2023-04-15T04:36:27.493Z,1390.00
2023-04-15T04:37:27.491Z,1387.00
2023-04-15T04:38:27.484Z,1398.00
2023-04-15T04:39:27.472Z,1389.00
2023-04-15T04:40:27.537Z,1394.00
2023-04-15T04:41:27.547Z,1375.00
2023-04-15T04:42:27.631Z,1395.00
2023-04-15T04:43:27.639Z,1399.00
2023-04-15T04:44:27.623Z,1398.00
2023-04-15T04:45:27.648Z,1381.00
2023-04-15T04:46:27.712Z,1382.00
2023-04-15T04:47:27.684Z,1380.00
2023-04-15T04:48:27.714Z,1374.00
2023-04-15T04:49:27.709Z,1373.00
2023-04-15T04:50:27.743Z,1388.00
2023-04-15T04:51:27.735Z,1369.00
2023-04-15T04:52:27.749Z,1379.00
2023-04-15T04:53:27.799Z,1367.00
2023-04-15T04:54:27.923Z,1365.00
2023-04-15T04:55:27.868Z,1356.00
2023-04-15T04:56:27.926Z,1362.00
2023-04-15T04:57:27.856Z,1373.00
2023-04-15T04:58:27.972Z,1375.00
2023-04-15T04:59:27.903Z,1364.00
2023-04-15T05:00:27.908Z,1365.00
2023-04-15T05:01:28.015Z,1367.00
2023-04-15T05:02:28.249Z,1365.00
2023-04-15T05:03:28.204Z,1370.00
2023-04-15T05:04:28.087Z,1357.00
2023-04-15T05:05:28.193Z,1344.00
2023-04-15T05:06:28.164Z,1340.00
2023-04-15T05:07:28.227Z,1354.00
2023-04-15T05:08:28.168Z,1362.00
2023-04-15T05:09:28.227Z,1334.00
2023-04-15T05:10:28.224Z,1351.00
2023-04-15T05:11:28.240Z,1343.00
2023-04-15T05:12:28.231Z,1336.00
2023-04-15T05:13:28.286Z,1347.00
2023-04-15T05:14:28.252Z,1342.00
2023-04-15T05:15:28.363Z,1330.00
2023-04-15T05:16:28.269Z,1332.00
2023-04-15T05:17:28.286Z,1334.00
2023-04-15T05:18:28.236Z,1341.00
2023-04-15T05:19:28.294Z,1339.00
2023-04-15T05:20:28.249Z,1313.00
2023-04-15T05:21:28.260Z,1318.00
2023-04-15T05:22:28.264Z,1315.00
2023-04-15T05:23:28.314Z,1304.00
2023-04-15T05:24:28.318Z,1316.00
2023-04-15T05:25:28.327Z,1304.00
2023-04-15T05:26:28.390Z,1317.00
2023-04-15T05:27:28.372Z,1306.00
2023-04-15T05:28:28.454Z,1299.00
2023-04-15T05:29:28.468Z,1302.00
2023-04-15T05:30:28.464Z,1298.00
2023-04-15T05:31:28.654Z,1292.00
2023-04-15T05:32:28.536Z,1303.00
2023-04-15T05:33:28.533Z,1282.00
2023-04-15T05:34:28.594Z,1291.00
2023-04-15T05:35:28.608Z,1294.00
2023-04-15T05:36:28.623Z,1293.00
2023-04-15T05:37:28.739Z,1285.00
2023-04-15T05:38:28.679Z,1278.00
2023-04-15T05:39:28.693Z,1286.00
2023-04-15T05:40:28.734Z,1275.00
2023-04-15T05:41:28.786Z,1274.00
2023-04-15T05:42:28.801Z,1278.00
2023-04-15T05:43:28.793Z,1257.00
2023-04-15T05:44:28.801Z,1268.00
2023-04-15T05:45:28.815Z,1269.00
2023-04-15T05:46:28.868Z,1267.00
2023-04-15T05:47:29.042Z,1260.00
2023-04-15T05:48:28.909Z,1266.00
2023-04-15T05:49:28.936Z,1255.00
2023-04-15T05:50:28.929Z,1253.00
2023-04-15T05:51:28.963Z,1252.00
2023-04-15T05:52:28.954Z,1247.00
2023-04-15T05:53:29.031Z,1248.00
2023-04-15T05:54:29.030Z,1245.00
2023-04-15T05:55:29.006Z,1252.00
2023-04-15T05:56:29.004Z,1244.00
2023-04-15T05:57:29.012Z,1244.00
2023-04-15T05:58:29.092Z,1255.00
2023-04-15T05:59:29.107Z,1237.00
2023-04-15T06:00:29.130Z,1224.00
2023-04-15T06:01:29.186Z,1231.00
2023-04-15T06:02:29.370Z,1237.00
2023-04-15T06:03:29.364Z,1216.00
2023-04-15T06:04:29.407Z,1219.00
2023-04-15T06:05:29.328Z,1233.00
2023-04-15T06:06:29.350Z,1217.00
2023-04-15T06:07:29.378Z,1231.00
2023-04-15T06:08:29.381Z,1236.00
2023-04-15T06:09:29.526Z,1197.00
2023-04-15T06:10:29.476Z,1227.00
2023-04-15T06:11:29.521Z,1221.00
2023-04-15T06:12:29.561Z,1223.00
2023-04-15T06:13:29.619Z,1202.00
2023-04-15T06:14:29.654Z,1212.00
2023-04-15T06:15:29.685Z,1206.00
2023-04-15T06:16:29.861Z,1204.00
2023-04-15T06:17:29.781Z,1199.00
2023-04-15T06:18:29.876Z,1206.00
2023-04-15T06:19:29.858Z,1199.00
2023-04-15T06:20:29.887Z,1202.00
2023-04-15T06:21:29.977Z,1203.00
2023-04-15T06:22:30.016Z,1186.00
2023-04-15T06:23:30.106Z,1195.00
2023-04-15T06:24:30.160Z,1200.00
2023-04-15T06:25:30.135Z,1202.00
2023-04-15T06:26:30.176Z,1194.00
2023-04-15T06:27:30.190Z,1205.00
2023-04-15T06:28:30.231Z,1181.00
2023-04-15T06:29:30.298Z,1189.00
2023-04-15T06:30:30.307Z,1179.00
2023-04-15T06:31:30.401Z,1169.00
2023-04-15T06:32:30.395Z,1174.00
2023-04-15T06:33:30.467Z,1194.00
2023-04-15T06:34:30.462Z,1169.00
2023-04-15T06:35:30.508Z,1170.00
2023-04-15T06:36:30.499Z,1177.00
2023-04-15T06:37:30.557Z,1179.00
2023-04-15T06:38:30.617Z,1165.00
2023-04-15T06:39:30.618Z,1166.00
2023-04-15T06:40:30.643Z,1164.00
2023-04-15T06:41:30.732Z,1158.00
2023-04-15T06:42:30.736Z,1164.00
2023-04-15T06:43:30.728Z,1166.00
2023-04-15T06:44:33.305Z,1160.00
2023-04-15T06:45:30.856Z,1162.00
2023-04-15T06:46:30.740Z,1153.00
2023-04-15T06:47:30.797Z,1159.00
2023-04-15T06:48:30.787Z,1155.00
2023-04-15T06:49:30.723Z,1142.00
2023-04-15T06:50:30.699Z,1123.00
2023-04-15T06:51:30.751Z,1136.00
2023-04-15T06:52:30.744Z,1152.00
2023-04-15T06:53:30.775Z,1130.00
2023-04-15T06:54:30.715Z,1147.00
2023-04-15T06:55:30.714Z,1120.00
2023-04-15T06:56:30.680Z,1127.00
2023-04-15T06:57:31.550Z,1123.00
2023-04-15T06:58:30.659Z,1134.00
2023-04-15T06:59:30.653Z,1116.00
2023-04-15T07:00:30.745Z,1111.00
2023-04-15T07:01:30.821Z,1121.00
2023-04-15T07:02:30.702Z,1115.00
2023-04-15T07:03:32.647Z,1117.00
2023-04-15T07:04:30.696Z,1114.00
2023-04-15T07:05:30.640Z,1102.00
2023-04-15T07:06:30.613Z,1100.00
2023-04-15T07:07:30.624Z,1116.00
2023-04-15T07:08:30.656Z,1086.00
2023-04-15T07:09:30.688Z,1099.00
2023-04-15T07:10:30.812Z,1102.00
2023-04-15T07:11:30.835Z,1078.00
2023-04-15T07:12:30.868Z,1076.00
2023-04-15T07:13:30.960Z,1068.00
2023-04-15T07:14:30.967Z,1077.00
2023-04-15T07:15:31.076Z,1076.00
2023-04-15T07:16:31.201Z,1074.00
2023-04-15T07:17:31.170Z,1072.00
2023-04-15T07:18:31.176Z,1053.00
2023-04-15T07:19:31.249Z,1065.00
2023-04-15T07:20:31.350Z,1061.00
2023-04-15T07:21:31.368Z,1049.00
2023-04-15T07:22:31.458Z,1064.00
2023-04-15T07:23:31.486Z,1049.00
2023-04-15T07:24:31.545Z,1027.00
2023-04-15T07:25:31.598Z,1042.00
2023-04-15T07:26:31.619Z,1032.00
2023-04-15T07:27:31.713Z,1012.00
2023-04-15T07:28:31.765Z,1024.00
2023-04-15T07:29:31.823Z,1011.00
2023-04-15T07:30:31.862Z,1034.00
2023-04-15T07:31:31.920Z,1011.00
2023-04-15T07:32:32.049Z,1010.00
2023-04-15T07:33:31.985Z,1016.00
2023-04-15T07:34:32.720Z,1003.00
2023-04-15T07:35:32.123Z,1012.00
2023-04-15T07:36:32.130Z,995.00
2023-04-15T07:37:32.197Z,994.00
2023-04-15T07:38:32.221Z,999.00
2023-04-15T07:39:32.328Z,991.00
2023-04-15T07:40:32.354Z,974.00
2023-04-15T07:41:32.361Z,983.00
2023-04-15T07:42:32.385Z,960.00
2023-04-15T07:43:32.430Z,978.00
2023-04-15T07:44:32.502Z,968.00
2023-04-15T07:45:32.570Z,972.00
2023-04-15T07:46:32.657Z,981.00
2023-04-15T07:47:32.645Z,954.00
2023-04-15T07:48:32.614Z,944.00
2023-04-15T07:49:32.620Z,958.00
2023-04-15T07:50:32.702Z,965.00
2023-04-15T07:51:32.692Z,971.00
2023-04-15T07:52:32.708Z,957.00
2023-04-15T07:53:32.751Z,981.00
2023-04-15T07:54:32.762Z,972.00
2023-04-15T07:55:32.824Z,959.00
2023-04-15T07:56:32.822Z,953.00
2023-04-15T07:57:32.839Z,963.00
2023-04-15T07:58:32.855Z,978.00
2023-04-15T07:59:32.860Z,971.00
2023-04-15T08:00:32.870Z,974.00
2023-04-15T08:01:32.925Z,975.00
2023-04-15T08:02:33.034Z,958.00
2023-04-15T08:03:33.022Z,966.00
2023-04-15T08:04:33.061Z,943.00
2023-04-15T08:05:32.895Z,930.00
2023-04-15T08:06:32.898Z,958.00
2023-04-15T08:07:32.953Z,951.00
2023-04-15T08:08:32.970Z,956.00
2023-04-15T08:09:32.974Z,960.00
2023-04-15T08:10:32.947Z,938.00
2023-04-15T08:11:32.962Z,933.00
2023-04-15T08:12:32.988Z,935.00
2023-04-15T08:13:33.012Z,928.00
2023-04-15T08:14:32.958Z,932.00
2023-04-15T08:15:32.992Z,934.00
2023-04-15T08:16:33.049Z,940.00
2023-04-15T08:17:32.963Z,933.00
2023-04-15T08:18:32.946Z,927.00
2023-04-15T08:19:32.942Z,941.00
2023-04-15T08:20:32.953Z,954.00
2023-04-15T08:21:33.001Z,931.00
2023-04-15T08:22:33.015Z,943.00
2023-04-15T08:23:33.035Z,930.00
2023-04-15T08:24:33.121Z,930.00
2023-04-15T08:25:33.182Z,933.00
2023-04-15T08:26:33.218Z,916.00
2023-04-15T08:27:33.279Z,925.00
2023-04-15T08:28:33.359Z,931.00
2023-04-15T08:29:33.467Z,911.00
2023-04-15T08:30:33.481Z,933.00
2023-04-15T08:31:33.557Z,937.00
2023-04-15T08:32:33.607Z,933.00
2023-04-15T08:33:33.629Z,906.00
2023-04-15T08:34:33.707Z,934.00
2023-04-15T08:35:33.747Z,921.00
2023-04-15T08:36:33.874Z,920.00
2023-04-15T08:37:33.879Z,918.00
2023-04-15T08:38:33.925Z,919.00
2023-04-15T08:39:33.968Z,936.00
2023-04-15T08:40:34.037Z,924.00
2023-04-15T08:41:34.088Z,919.00
2023-04-15T08:42:34.153Z,911.00
2023-04-15T08:43:34.212Z,929.00
2023-04-15T08:44:34.278Z,916.00
2023-04-15T08:45:34.292Z,917.00
2023-04-15T08:46:34.340Z,913.00
2023-04-15T08:47:34.540Z,914.00
2023-04-15T08:48:34.456Z,918.00
2023-04-15T08:49:34.511Z,908.00
2023-04-15T08:50:34.544Z,914.00
2023-04-15T08:51:34.602Z,913.00
2023-04-15T08:52:34.627Z,896.00
2023-04-15T08:53:34.772Z,877.00
2023-04-15T08:54:34.722Z,899.00
2023-04-15T08:55:34.746Z,889.00
2023-04-15T08:56:34.883Z,871.00
2023-04-15T08:57:34.891Z,865.00
2023-04-15T08:58:34.934Z,859.00
2023-04-15T08:59:34.997Z,846.00
2023-04-15T09:00:34.964Z,861.00
2023-04-15T09:01:35.158Z,850.00
2023-04-15T09:02:35.198Z,861.00
2023-04-15T09:03:35.176Z,873.00
2023-04-15T09:04:35.176Z,862.00
2023-04-15T09:05:35.163Z,868.00
2023-04-15T09:06:35.251Z,879.00
2023-04-15T09:07:35.247Z,859.00
2023-04-15T09:08:35.271Z,872.00
2023-04-15T09:09:35.309Z,869.00
2023-04-15T09:10:35.336Z,866.00
2023-04-15T09:11:35.456Z,863.00
2023-04-15T09:12:35.386Z,849.00
2023-04-15T09:13:35.427Z,862.00
2023-04-15T09:14:35.431Z,863.00
2023-04-15T09:15:35.467Z,861.00
2023-04-15T09:16:35.598Z,866.00
2023-04-15T09:17:35.524Z,881.00
2023-04-15T09:18:35.557Z,872.00
2023-04-15T09:19:35.561Z,867.00
2023-04-15T09:20:35.534Z,870.00
2023-04-15T09:21:35.574Z,880.00
2023-04-15T09:22:35.606Z,865.00
2023-04-15T09:23:35.549Z,872.00
2023-04-15T09:24:35.591Z,864.00
2023-04-15T09:25:35.627Z,870.00
2023-04-15T09:26:35.578Z,890.00
2023-04-15T09:27:35.604Z,887.00
2023-04-15T09:28:35.596Z,874.00
2023-04-15T09:29:35.626Z,877.00
2023-04-15T09:30:35.613Z,871.00
2023-04-15T09:31:35.610Z,895.00
2023-04-15T09:32:35.658Z,898.00
2023-04-15T09:33:35.631Z,872.00
2023-04-15T09:34:35.659Z,876.00
2023-04-15T09:35:35.589Z,884.00
2023-04-15T09:36:35.643Z,884.00
2023-04-15T09:37:35.638Z,877.00
2023-04-15T09:38:35.658Z,887.00
2023-04-15T09:39:35.635Z,897.00
2023-04-15T09:40:35.694Z,901.00
2023-04-15T09:41:35.730Z,888.00
2023-04-15T09:42:35.846Z,894.00
2023-04-15T09:43:35.828Z,899.00
2023-04-15T09:44:35.866Z,903.00
2023-04-15T09:45:35.938Z,906.00
2023-04-15T09:46:36.049Z,910.00
2023-04-15T09:47:36.070Z,887.00
2023-04-15T09:48:36.141Z,896.00
2023-04-15T09:49:36.183Z,899.00
2023-04-15T09:50:36.254Z,925.00
2023-04-15T09:51:36.258Z,896.00
2023-04-15T09:52:36.370Z,897.00
2023-04-15T09:53:36.353Z,909.00
2023-04-15T09:54:36.542Z,903.00
2023-04-15T09:55:36.492Z,894.00
2023-04-15T09:56:36.494Z,885.00
2023-04-15T09:57:36.636Z,891.00
2023-04-15T09:58:36.668Z,886.00
2023-04-15T09:59:36.694Z,882.00
2023-04-15T10:00:36.786Z,881.00
2023-04-15T10:01:36.900Z,873.00
2023-04-15T10:02:36.993Z,884.00
2023-04-15T10:03:37.019Z,869.00
2023-04-15T10:04:36.982Z,883.00
2023-04-15T10:05:37.077Z,877.00
2023-04-15T10:06:37.090Z,876.00
2023-04-15T10:07:37.154Z,884.00
2023-04-15T10:08:37.194Z,884.00
2023-04-15T10:09:37.243Z,892.00
2023-04-15T10:10:37.317Z,877.00
2023-04-15T10:11:37.432Z,869.00
2023-04-15T10:12:37.430Z,864.00
2023-04-15T10:13:37.568Z,867.00
2023-04-15T10:14:37.503Z,878.00
2023-04-15T10:15:37.709Z,867.00
2023-04-15T10:16:37.666Z,868.00
2023-04-15T10:17:37.748Z,865.00
2023-04-15T10:18:37.747Z,869.00
2023-04-15T10:19:37.822Z,880.00
2023-04-15T10:20:37.897Z,887.00
2023-04-15T10:21:38.014Z,871.00
2023-04-15T10:22:37.983Z,880.00
2023-04-15T10:23:38.040Z,873.00
2023-04-15T10:24:38.073Z,877.00
2023-04-15T10:25:38.125Z,876.00
2023-04-15T10:26:38.198Z,881.00
2023-04-15T10:27:38.237Z,873.00
2023-04-15T10:28:38.284Z,873.00
2023-04-15T10:29:38.332Z,853.00
2023-04-15T10:30:38.396Z,859.00
2023-04-15T10:31:38.504Z,872.00
2023-04-15T10:32:38.551Z,863.00
2023-04-15T10:33:38.557Z,867.00
2023-04-15T10:34:38.603Z,866.00
2023-04-15T10:35:38.638Z,862.00
2023-04-15T10:36:38.712Z,866.00
2023-04-15T10:37:38.793Z,880.00
2023-04-15T10:38:38.839Z,877.00
2023-04-15T10:39:38.890Z,867.00
2023-04-15T10:40:38.911Z,878.00
2023-04-15T10:41:38.947Z,865.00
2023-04-15T10:42:39.028Z,877.00
2023-04-15T10:43:39.084Z,864.00
2023-04-15T10:44:39.136Z,864.00
2023-04-15T10:45:39.193Z,887.00
2023-04-15T10:46:39.356Z,881.00
2023-04-15T10:47:39.338Z,868.00
2023-04-15T10:48:39.414Z,868.00
2023-04-15T10:49:39.453Z,874.00
2023-04-15T10:50:39.540Z,853.00
2023-04-15T10:51:39.526Z,853.00
2023-04-15T10:52:39.620Z,867.00
2023-04-15T10:53:39.652Z,876.00
2023-04-15T10:54:39.715Z,863.00
2023-04-15T10:55:39.737Z,887.00
2023-04-15T10:56:39.805Z,879.00
2023-04-15T10:57:39.850Z,866.00
2023-04-15T10:58:39.892Z,869.00
2023-04-15T10:59:39.920Z,877.00
2023-04-15T11:00:40.034Z,875.00
2023-04-15T11:01:40.058Z,868.00
2023-04-15T11:02:40.281Z,873.00
2023-04-15T11:03:40.454Z,870.00
2023-04-15T11:04:41.840Z,874.00
2023-04-15T11:05:40.263Z,875.00
2023-04-15T11:06:40.203Z,872.00
2023-04-15T11:07:40.214Z,874.00
2023-04-15T11:08:40.154Z,863.00
2023-04-15T11:09:40.169Z,875.00
2023-04-15T11:10:40.139Z,851.00
2023-04-15T11:11:40.126Z,874.00
2023-04-15T11:12:40.119Z,861.00
2023-04-15T11:13:40.163Z,866.00
2023-04-15T11:14:40.130Z,853.00
2023-04-15T11:15:40.116Z,851.00
2023-04-15T11:16:40.215Z,849.00
2023-04-15T11:17:40.109Z,851.00
2023-04-15T11:18:40.117Z,844.00
2023-04-15T11:19:40.060Z,852.00
2023-04-15T11:20:40.136Z,851.00
2023-04-15T11:21:40.048Z,835.00
2023-04-15T11:22:40.049Z,847.00
2023-04-15T11:23:40.097Z,852.00
2023-04-15T11:24:40.068Z,837.00
2023-04-15T11:26:29.899Z,500.00
2023-04-15T11:27:29.944Z,500.00
2023-04-15T11:28:29.845Z,500.00
2023-04-15T11:29:29.862Z,500.00
2023-04-15T11:30:29.863Z,500.00
2023-04-15T11:31:29.896Z,505.00
2023-04-15T11:32:29.834Z,500.00
2023-04-15T11:33:29.832Z,502.00
2023-04-15T11:34:29.838Z,505.00
2023-04-15T11:35:29.788Z,502.00
2023-04-15T11:36:29.877Z,500.00
2023-04-15T11:37:29.827Z,505.00
2023-04-15T11:38:29.823Z,502.00
2023-04-15T11:39:29.833Z,500.00
2023-04-15T11:40:29.772Z,505.00
2023-04-15T11:41:29.780Z,502.00
2023-04-15T11:42:42.783Z,508.00
2023-04-15T11:43:30.774Z,508.00
2023-04-15T11:44:29.760Z,509.00
2023-04-15T11:45:29.784Z,508.00
2023-04-15T11:46:29.737Z,507.00
2023-04-15T11:47:29.751Z,502.00
2023-04-15T11:48:29.733Z,505.00
2023-04-15T11:49:29.705Z,502.00
2023-04-15T11:50:29.706Z,503.00
2023-04-15T11:51:29.696Z,505.00
2023-04-15T11:52:29.678Z,502.00
2023-04-15T11:53:29.685Z,501.00
2023-04-15T11:54:29.669Z,504.00
2023-04-15T11:55:29.664Z,502.00
2023-04-15T11:56:29.668Z,511.00
2023-04-15T11:57:29.682Z,509.00
2023-04-15T11:58:29.682Z,506.00
2023-04-15T11:59:38.956Z,504.00
2023-04-15T12:00:30.685Z,504.00
2023-04-15T12:01:29.665Z,504.00
2023-04-15T12:02:29.783Z,506.00
2023-04-15T12:03:29.838Z,508.00
2023-04-15T12:04:29.923Z,502.00
2023-04-15T12:05:29.643Z,502.00
2023-04-15T12:06:29.578Z,514.00
2023-04-15T12:07:29.610Z,514.00
2023-04-15T12:08:29.611Z,506.00
2023-04-15T12:09:30.933Z,504.00
2023-04-15T12:10:29.624Z,508.00
2023-04-15T12:11:29.601Z,502.00
2023-04-15T12:12:29.536Z,509.00
2023-04-15T12:13:29.535Z,506.00
2023-04-15T12:14:29.619Z,504.00
2023-04-15T12:15:29.606Z,505.00